Time,TemperatureF,DewpointF,PressureIn,WindDirection,WindDirectionDegrees,WindSpeedMPH,WindSpeedGustMPH,Humidity,HourlyPrecipIn,Conditions,Clouds,dailyrainin,SoftwareType,DateUTC
2013-01-12 00:01:00,51.8,45.8,29.96,SSE,158,4.6,6.1,80,0.00,RA,,0.00,WeatherDisplay:10.37,2013-01-12 06:01:00,
2013-01-12 00:06:00,51.8,45.8,29.96,SSE,158,4.6,6.1,80,0.00,RA,,0.00,WeatherDisplay:10.37,2013-01-12 06:06:00,
2013-01-12 00:11:00,51.4,45.5,29.96,South,180,12.7,12.7,80,0.00,CLR,,0.00,WeatherDisplay:10.37,2013-01-12 06:11:00,
2013-01-12 00:16:00,51.4,45.5,29.95,South,180,5.8,6.3,80,0.00,CLR,,0.00,WeatherDisplay:10.37,2013-01-12 06:16:00,
2013-01-12 00:21:00,51.4,45.5,29.96,SSW,202,10.4,10.4,80,0.00,CLR,,0.00,WeatherDisplay:10.37,2013-01-12 06:21:00,
2013-01-12 00:26:00,51.3,45.3,29.96,SSW,202,12.7,12.7,80,0.00,CLR,,0.00,WeatherDisplay:10.37,2013-01-12 06:26:00,
2013-01-12 00:31:00,51.3,45.3,29.96,SSW,202,10.7,10.7,80,0.00,CLR,,0.00,WeatherDisplay:10.37,2013-01-12 06:31:00,
2013-01-12 00:36:00,51.4,45.5,29.96,SW,225,8.1,8.1,80,0.00,CLR,,0.00,WeatherDisplay:10.37,2013-01-12 06:36:00,
2013-01-12 00:41:00,51.4,45.5,29.96,SW,225,8.1,8.1,80,0.00,CLR,,0.00,WeatherDisplay:10.37,2013-01-12 06:41:00,
2013-01-12 00:46:00,51.4,45.1,29.96,South,180,4.6,5.1,79,0.00,CLR,,0.00,WeatherDisplay:10.37,2013-01-12 06:46:00,
2013-01-12 00:51:00,51.3,45.0,29.96,SSW,202,10.4,10.4,79,0.00,CLR,,0.00,WeatherDisplay:10.37,2013-01-12 06:51:00,
2013-01-12 00:56:00,51.4,45.1,29.96,SSW,202,13.8,13.8,79,0.00,CLR,,0.00,WeatherDisplay:10.37,2013-01-12 06:56:00,
2013-01-12 01:01:00,51.6,45.3,29.96,SSW,202,8.1,8.1,79,0.00,CLR,,0.00,WeatherDisplay:10.37,2013-01-12 07:01:00,
2013-01-12 01:06:00,51.6,45.0,29.97,South,180,6.9,6.9,78,0.00,CLR,,0.00,WeatherDisplay:10.37,2013-01-12 07:06:00,
2013-01-12 01:11:00,52.0,45.3,29.96,SSW,202,10.4,10.4,78,0.00,CLR,,0.00,WeatherDisplay:10.37,2013-01-12 07:11:00,
2013-01-12 01:16:00,51.8,44.8,29.96,SSW,202,6.9,6.9,77,0.00,CLR,,0.00,WeatherDisplay:10.37,2013-01-12 07:16:00,
2013-01-12 01:21:00,51.8,44.8,29.96,SSW,202,6.3,6.3,77,0.00,CLR,,0.00,WeatherDisplay:10.37,2013-01-12 07:21:00,
2013-01-12 01:26:00,51.6,44.6,29.96,SSW,202,6.3,6.3,77,0.00,CLR,,0.00,WeatherDisplay:10.37,2013-01-12 07:26:00,
2013-01-12 01:31:00,51.6,44.6,29.96,SSW,202,8.1,8.1,77,0.00,CLR,,0.00,WeatherDisplay:10.37,2013-01-12 07:31:00,
2013-01-12 01:36:00,51.6,44.3,29.96,SSE,158,10.4,10.4,76,0.00,CLR,,0.00,WeatherDisplay:10.37,2013-01-12 07:36:00,
2013-01-12 01:41:00,51.6,44.3,29.96,SSW,202,6.9,6.9,76,0.00,CLR,,0.00,WeatherDisplay:10.37,2013-01-12 07:41:00,
2013-01-12 01:46:00,51.6,44.3,29.98,South,180,9.6,9.6,76,0.00,CLR,,0.00,WeatherDisplay:10.37,2013-01-12 07:46:00,
2013-01-12 01:51:00,51.8,44.5,29.97,SSW,202,6.9,0.0,76,0.00,CLR,,0.00,WeatherDisplay:10.37,2013-01-12 07:51:00,
2013-01-12 01:56:00,51.8,44.5,29.97,South,180,9.2,9.2,76,0.00,CLR,,0.00,WeatherDisplay:10.37,2013-01-12 07:56:00,
2013-01-12 02:01:00,51.8,44.5,29.97,SSW,202,11.5,11.5,76,0.00,CLR,,0.00,WeatherDisplay:10.37,2013-01-12 08:01:00,
2013-01-12 02:06:00,51.8,44.5,29.98,South,180,9.2,9.6,76,0.00,CLR,,0.00,WeatherDisplay:10.37,2013-01-12 08:06:00,
2013-01-12 02:11:00,51.8,44.5,29.98,South,180,2.3,2.7,76,0.00,CLR,,0.00,WeatherDisplay:10.37,2013-01-12 08:11:00,
2013-01-12 02:16:00,51.6,44.3,29.98,South,180,11.5,11.8,76,0.00,CLR,,0.00,WeatherDisplay:10.37,2013-01-12 08:16:00,
2013-01-12 02:21:00,51.8,44.5,29.97,SSW,202,9.2,9.2,76,0.00,CLR,,0.00,WeatherDisplay:10.37,2013-01-12 08:21:00,
2013-01-12 02:26:00,51.6,44.3,29.96,South,180,6.9,6.9,76,0.00,CLR,,0.00,WeatherDisplay:10.37,2013-01-12 08:26:00,
2013-01-12 02:31:00,51.6,44.3,29.97,SSE,158,10.4,10.4,76,0.00,CLR,,0.00,WeatherDisplay:10.37,2013-01-12 08:31:00,
2013-01-12 02:36:00,51.8,44.5,29.97,South,180,8.1,8.1,76,0.00,CLR,,0.00,WeatherDisplay:10.37,2013-01-12 08:36:00,
2013-01-12 02:41:00,51.8,44.5,29.98,SW,225,8.1,8.1,76,0.00,CLR,,0.00,WeatherDisplay:10.37,2013-01-12 08:41:00,
2013-01-12 02:46:00,51.8,44.5,29.98,SSW,202,9.2,9.2,76,0.00,CLR,,0.00,WeatherDisplay:10.37,2013-01-12 08:46:00,
2013-01-12 02:51:00,51.8,44.5,29.97,SSW,202,12.7,12.7,76,0.00,CLR,,0.00,WeatherDisplay:10.37,2013-01-12 08:51:00,
2013-01-12 02:56:00,52.0,44.6,29.97,SSW,202,6.9,7.0,76,0.00,CLR,,0.00,WeatherDisplay:10.37,2013-01-12 08:56:00,
2013-01-12 03:01:00,51.8,44.5,29.97,SSW,202,9.2,9.4,76,0.00,CLR,,0.00,WeatherDisplay:10.37,2013-01-12 09:01:00,
2013-01-12 03:06:00,52.0,44.6,29.97,South,180,12.7,12.7,76,0.00,CLR,,0.00,WeatherDisplay:10.37,2013-01-12 09:06:00,
2013-01-12 03:11:00,52.0,44.6,29.98,SW,225,8.1,8.1,76,0.00,CLR,,0.00,WeatherDisplay:10.37,2013-01-12 09:11:00,
2013-01-12 03:16:00,52.0,44.6,29.98,SW,225,8.1,8.1,76,0.00,CLR,,0.00,WeatherDisplay:10.37,2013-01-12 09:16:00,
2013-01-12 03:21:00,52.0,44.6,29.97,SSW,202,12.7,12.7,76,0.00,CLR,,0.00,WeatherDisplay:10.37,2013-01-12 09:21:00,
2013-01-12 03:26:00,51.8,44.5,29.97,SSW,202,9.2,9.2,76,0.00,CLR,,0.00,WeatherDisplay:10.37,2013-01-12 09:26:00,
2013-01-12 03:31:00,52.0,44.6,29.97,SSW,202,6.3,6.3,76,0.00,CLR,,0.00,WeatherDisplay:10.37,2013-01-12 09:31:00,
2013-01-12 03:36:00,51.8,44.5,29.98,SSW,202,6.9,6.9,76,0.00,CLR,,0.00,WeatherDisplay:10.37,2013-01-12 09:36:00,
2013-01-12 03:41:00,51.8,44.5,29.98,SSW,202,9.2,9.4,76,0.00,CLR,,0.00,WeatherDisplay:10.37,2013-01-12 09:41:00,
2013-01-12 03:46:00,51.8,44.5,29.96,SSW,202,6.9,6.9,76,0.00,CLR,,0.00,WeatherDisplay:10.37,2013-01-12 09:46:00,
2013-01-12 03:51:00,51.8,44.5,29.96,SSW,202,9.4,9.4,76,0.00,CLR,,0.00,WeatherDisplay:10.37,2013-01-12 09:51:00,
2013-01-12 03:56:00,51.6,44.3,29.97,SW,225,9.2,9.2,76,0.00,CLR,,0.00,WeatherDisplay:10.37,2013-01-12 09:56:00,
2013-01-12 04:01:00,51.4,44.1,29.96,South,180,6.9,6.9,76,0.00,CLR,,0.00,WeatherDisplay:10.37,2013-01-12 10:01:00,
2013-01-12 04:06:00,51.4,44.1,29.96,SSW,202,3.5,3.5,76,0.00,CLR,,0.00,WeatherDisplay:10.37,2013-01-12 10:06:00,
2013-01-12 04:11:00,51.4,44.1,29.96,SSW,202,6.9,6.9,76,0.00,CLR,,0.00,WeatherDisplay:10.37,2013-01-12 10:11:00,
2013-01-12 04:16:00,51.3,44.0,29.96,SSW,202,6.3,6.3,76,0.00,CLR,,0.00,WeatherDisplay:10.37,2013-01-12 10:16:00,
2013-01-12 04:21:00,51.3,44.3,29.97,South,180,11.8,11.8,77,0.00,CLR,,0.00,WeatherDisplay:10.37,2013-01-12 10:21:00,
2013-01-12 04:26:00,51.4,44.5,29.97,SW,225,6.9,11.8,77,0.00,CLR,,0.00,WeatherDisplay:10.37,2013-01-12 10:26:00,
2013-01-12 04:31:00,51.4,44.5,29.97,SW,225,6.9,11.8,77,0.00,CLR,,0.00,WeatherDisplay:10.37,2013-01-12 10:31:00,
2013-01-12 04:36:00,51.4,44.5,29.97,SW,225,6.9,11.8,77,0.00,CLR,,0.00,WeatherDisplay:10.37,2013-01-12 10:36:00,
2013-01-12 04:41:00,51.4,44.5,29.96,SW,225,6.9,11.8,77,0.00,CLR,,0.00,WeatherDisplay:10.37,2013-01-12 10:41:00,
2013-01-12 04:46:00,51.6,44.6,29.96,SSW,202,9.2,9.4,77,0.00,CLR,,0.00,WeatherDisplay:10.37,2013-01-12 10:46:00,
2013-01-12 04:51:00,51.6,44.3,29.96,SSE,158,13.0,13.0,76,0.00,CLR,,0.00,WeatherDisplay:10.37,2013-01-12 10:51:00,
2013-01-12 04:56:00,51.6,44.3,29.96,SSW,202,6.5,6.5,76,0.00,CLR,,0.00,WeatherDisplay:10.37,2013-01-12 10:56:00,
2013-01-12 05:01:00,51.8,44.5,29.96,SSW,202,8.1,8.1,76,0.00,CLR,,0.00,WeatherDisplay:10.37,2013-01-12 11:01:00,
2013-01-12 05:06:00,51.8,44.5,29.97,SSW,202,8.9,8.9,76,0.00,CLR,,0.00,WeatherDisplay:10.37,2013-01-12 11:06:00,
2013-01-12 05:11:00,51.8,44.5,29.98,SSW,202,11.5,11.5,76,0.00,CLR,,0.00,WeatherDisplay:10.37,2013-01-12 11:11:00,
2013-01-12 05:16:00,51.8,44.5,29.97,South,180,5.1,5.1,76,0.00,CLR,,0.00,WeatherDisplay:10.37,2013-01-12 11:16:00,
2013-01-12 05:21:00,51.6,44.3,29.98,SSW,202,6.3,6.3,76,0.00,CLR,,0.00,WeatherDisplay:10.37,2013-01-12 11:21:00,
2013-01-12 05:26:00,51.6,44.3,29.98,SSW,202,3.5,3.5,76,0.00,CLR,,0.00,WeatherDisplay:10.37,2013-01-12 11:26:00,
2013-01-12 05:31:00,51.4,44.5,29.98,SSW,202,7.2,7.2,77,0.00,CLR,,0.00,WeatherDisplay:10.37,2013-01-12 11:31:00,
2013-01-12 05:36:00,51.6,44.6,29.99,South,180,5.8,5.8,77,0.00,CLR,,0.00,WeatherDisplay:10.37,2013-01-12 11:36:00,
2013-01-12 05:41:00,51.4,44.5,29.99,SSW,202,5.1,5.1,77,0.00,CLR,,0.00,WeatherDisplay:10.37,2013-01-12 11:41:00,
2013-01-12 05:46:00,51.3,44.3,29.99,SSW,202,3.5,3.5,77,0.00,CLR,,0.00,WeatherDisplay:10.37,2013-01-12 11:46:00,
2013-01-12 05:51:00,51.3,44.3,30.00,South,180,6.9,6.9,77,0.00,CLR,,0.00,WeatherDisplay:10.37,2013-01-12 11:51:00,
2013-01-12 05:56:00,51.3,44.3,30.00,South,180,4.7,4.7,77,0.00,CLR,,0.00,WeatherDisplay:10.37,2013-01-12 11:56:00,
2013-01-12 06:01:00,51.1,44.5,30.00,SSE,158,3.5,3.5,78,0.00,CLR,,0.00,WeatherDisplay:10.37,2013-01-12 12:01:00,
2013-01-12 06:06:00,50.9,44.3,30.00,SSW,202,4.9,4.9,78,0.00,CLR,,0.00,WeatherDisplay:10.37,2013-01-12 12:06:00,
2013-01-12 06:11:00,50.9,44.3,30.01,SW,225,2.3,2.3,78,0.00,CLR,,0.00,WeatherDisplay:10.37,2013-01-12 12:11:00,
2013-01-12 06:16:00,50.9,44.3,30.01,SSE,158,6.9,6.9,78,0.00,CLR,,0.00,WeatherDisplay:10.37,2013-01-12 12:16:00,
2013-01-12 06:21:00,50.9,44.6,30.01,SSW,202,3.8,3.8,79,0.00,CLR,,0.00,WeatherDisplay:10.37,2013-01-12 12:21:00,
2013-01-12 06:26:00,50.9,44.6,30.01,SW,225,5.8,5.8,79,0.00,CLR,,0.00,WeatherDisplay:10.37,2013-01-12 12:26:00,
2013-01-12 06:31:00,50.9,44.6,30.01,South,180,4.6,4.6,79,0.00,CLR,,0.00,WeatherDisplay:10.37,2013-01-12 12:31:00,
2013-01-12 06:36:00,50.9,44.6,30.01,SSW,202,10.4,10.4,79,0.00,CLR,,0.00,WeatherDisplay:10.37,2013-01-12 12:36:00,
2013-01-12 06:41:00,50.9,44.6,30.01,SSW,202,6.9,6.9,79,0.00,CLR,,0.00,WeatherDisplay:10.37,2013-01-12 12:41:00,
2013-01-12 06:47:00,50.7,44.8,30.01,SSW,202,5.8,5.8,80,0.00,CLR,,0.00,WeatherDisplay:10.37,2013-01-12 12:47:00,
2013-01-12 06:52:00,50.9,45.3,30.02,SSW,202,8.1,8.1,81,0.00,CLR,,0.00,WeatherDisplay:10.37,2013-01-12 12:52:00,
2013-01-12 06:57:00,50.7,45.1,30.02,SSW,202,5.8,6.3,81,0.00,CLR,,0.00,WeatherDisplay:10.37,2013-01-12 12:57:00,
2013-01-12 07:02:00,50.9,44.9,30.02,SSW,202,8.1,8.1,80,0.00,CLR,,0.00,WeatherDisplay:10.37,2013-01-12 13:02:00,
2013-01-12 07:07:00,50.9,44.9,30.03,SW,225,5.8,5.8,80,0.00,CLR,,0.00,WeatherDisplay:10.37,2013-01-12 13:07:00,
2013-01-12 07:12:00,50.9,45.3,30.03,SW,225,4.6,4.6,81,0.00,CLR,,0.00,WeatherDisplay:10.37,2013-01-12 13:12:00,
2013-01-12 07:17:00,50.9,44.9,30.04,SSW,202,4.9,4.9,80,0.00,CLR,,0.00,WeatherDisplay:10.37,2013-01-12 13:17:00,
2013-01-12 07:22:00,50.9,44.9,30.03,SSW,202,9.2,9.2,80,0.00,CLR,,0.00,WeatherDisplay:10.37,2013-01-12 13:22:00,
2013-01-12 07:27:00,51.1,45.1,30.04,SSW,202,3.5,3.5,80,0.00,CLR,,0.00,WeatherDisplay:10.37,2013-01-12 13:27:00,
2013-01-12 07:32:00,51.3,45.3,30.05,SSW,202,5.8,6.5,80,0.00,CLR,,0.00,WeatherDisplay:10.37,2013-01-12 13:32:00,
2013-01-12 07:37:00,51.3,45.3,30.04,SSE,158,6.9,6.9,80,0.00,CLR,,0.00,WeatherDisplay:10.37,2013-01-12 13:37:00,
2013-01-12 07:42:00,51.3,45.3,30.04,South,180,9.4,9.4,80,0.00,CLR,,0.00,WeatherDisplay:10.37,2013-01-12 13:42:00,
2013-01-12 07:47:00,51.3,45.0,30.04,SW,225,3.6,3.6,79,0.00,CLR,,0.00,WeatherDisplay:10.37,2013-01-12 13:47:00,
2013-01-12 07:52:00,51.3,45.0,30.04,SW,225,1.2,1.2,79,0.00,CLR,,0.00,WeatherDisplay:10.37,2013-01-12 13:52:00,
2013-01-12 07:57:00,51.3,45.3,30.04,SSW,202,4.6,4.6,80,0.00,CLR,,0.00,WeatherDisplay:10.37,2013-01-12 13:57:00,
2013-01-12 08:02:00,51.4,45.5,30.05,SSW,202,9.2,9.2,80,0.00,CLR,,0.00,WeatherDisplay:10.37,2013-01-12 14:02:00,
2013-01-12 08:07:00,51.6,45.7,30.05,South,180,8.1,8.1,80,0.00,CLR,,0.00,WeatherDisplay:10.37,2013-01-12 14:07:00,
2013-01-12 08:12:00,51.6,45.3,30.06,SSW,202,9.6,9.6,79,0.00,CLR,,0.00,WeatherDisplay:10.37,2013-01-12 14:12:00,
2013-01-12 08:17:00,51.6,45.3,30.06,SW,225,7.4,7.4,79,0.00,CLR,,0.00,WeatherDisplay:10.37,2013-01-12 14:17:00,
2013-01-12 08:22:00,51.4,45.1,30.05,SSW,202,2.3,2.3,79,0.00,CLR,,0.00,WeatherDisplay:10.37,2013-01-12 14:22:00,
2013-01-12 08:27:00,51.6,45.3,30.06,SSW,202,5.6,5.6,79,0.00,CLR,,0.00,WeatherDisplay:10.37,2013-01-12 14:27:00,
2013-01-12 08:32:00,51.8,45.5,30.06,WSW,248,6.9,6.9,79,0.00,CLR,,0.00,WeatherDisplay:10.37,2013-01-12 14:32:00,
2013-01-12 08:37:00,52.0,45.7,30.06,SSW,202,4.6,4.9,79,0.00,CLR,,0.00,WeatherDisplay:10.37,2013-01-12 14:37:00,
2013-01-12 08:42:00,52.0,45.7,30.06,SSW,202,8.1,8.1,79,0.00,CLR,,0.00,WeatherDisplay:10.37,2013-01-12 14:42:00,
2013-01-12 08:47:00,52.2,45.8,30.06,SSW,202,5.8,5.8,79,0.00,CLR,,0.00,WeatherDisplay:10.37,2013-01-12 14:47:00,
2013-01-12 08:52:00,52.0,45.3,30.07,SSW,202,6.9,6.9,78,0.00,CLR,,0.00,WeatherDisplay:10.37,2013-01-12 14:52:00,
2013-01-12 08:57:00,52.3,45.7,30.07,SW,225,10.3,10.3,78,0.00,CLR,,0.00,WeatherDisplay:10.37,2013-01-12 14:57:00,
2013-01-12 09:02:00,52.3,45.7,30.07,South,180,4.6,4.6,78,0.00,CLR,,0.00,WeatherDisplay:10.37,2013-01-12 15:02:00,
2013-01-12 09:07:00,52.5,45.9,30.07,SW,225,3.5,7.7,78,0.00,CLR,,0.00,WeatherDisplay:10.37,2013-01-12 15:07:00,
2013-01-12 09:12:00,52.7,45.7,30.08,SSW,202,1.2,2.1,77,0.00,CLR,,0.00,WeatherDisplay:10.37,2013-01-12 15:12:00,
2013-01-12 09:17:00,52.7,45.7,30.08,South,180,0.0,1.1,77,0.00,CLR,,0.00,WeatherDisplay:10.37,2013-01-12 15:17:00,
2013-01-12 09:22:00,52.7,45.7,30.08,South,180,0.0,1.1,77,0.00,CLR,,0.00,WeatherDisplay:10.37,2013-01-12 15:22:00,
2013-01-12 09:27:00,53.8,46.4,30.08,SW,225,4.6,0.0,76,0.00,CLR,,0.00,WeatherDisplay:10.37,2013-01-12 15:27:00,
2013-01-12 09:32:00,53.8,46.4,30.08,SSW,202,0.0,4.2,76,0.00,CLR,,0.00,WeatherDisplay:10.37,2013-01-12 15:32:00,
2013-01-12 09:37:00,53.8,45.7,30.08,SSW,202,3.5,3.5,74,0.00,CLR,,0.00,WeatherDisplay:10.37,2013-01-12 15:37:00,
2013-01-12 09:42:00,54.0,45.9,30.08,SSW,202,5.8,5.8,74,0.00,CLR,,0.00,WeatherDisplay:10.37,2013-01-12 15:42:00,
2013-01-12 09:47:00,54.0,45.9,30.08,West,270,5.8,5.8,74,0.00,CLR,,0.00,WeatherDisplay:10.37,2013-01-12 15:47:00,
2013-01-12 09:52:00,54.3,45.8,30.08,SW,225,6.9,6.9,73,0.00,CLR,,0.00,WeatherDisplay:10.37,2013-01-12 15:52:00,
2013-01-12 09:57:00,54.3,45.8,30.08,SSW,202,6.9,6.9,73,0.00,CLR,,0.00,WeatherDisplay:10.37,2013-01-12 15:57:00,
2013-01-12 10:02:00,54.3,45.8,30.09,SW,225,6.9,6.9,73,0.00,CLR,,0.00,WeatherDisplay:10.37,2013-01-12 16:02:00,
2013-01-12 10:07:00,54.3,45.8,30.08,SW,225,5.8,6.4,73,0.00,CLR,,0.00,WeatherDisplay:10.37,2013-01-12 16:07:00,
2013-01-12 10:12:00,54.1,45.7,30.08,SW,225,4.6,5.4,73,0.00,CLR,,0.00,WeatherDisplay:10.37,2013-01-12 16:12:00,
2013-01-12 10:17:00,54.1,45.7,30.08,SSW,202,4.6,5.1,73,0.00,CLR,,0.00,WeatherDisplay:10.37,2013-01-12 16:17:00,
2013-01-12 10:22:00,54.3,45.5,30.08,SSW,202,3.5,3.5,72,0.00,CLR,,0.00,WeatherDisplay:10.37,2013-01-12 16:22:00,
2013-01-12 10:27:00,54.5,45.7,30.08,SSW,202,3.5,3.6,72,0.00,CLR,,0.00,WeatherDisplay:10.37,2013-01-12 16:27:00,
2013-01-12 10:32:00,54.9,45.6,30.07,SW,225,9.2,9.2,71,0.00,CLR,,0.00,WeatherDisplay:10.37,2013-01-12 16:32:00,
2013-01-12 10:37:00,55.0,45.4,30.08,SSW,202,0.0,0.0,70,0.00,CLR,,0.00,WeatherDisplay:10.37,2013-01-12 16:37:00,
2013-01-12 10:42:00,55.2,45.6,30.07,WSW,248,4.0,4.0,70,0.00,CLR,,0.00,WeatherDisplay:10.37,2013-01-12 16:42:00,
2013-01-12 10:47:00,55.6,45.6,30.07,WSW,248,9.2,9.2,69,0.00,CLR,,0.00,WeatherDisplay:10.37,2013-01-12 16:47:00,
2013-01-12 10:52:00,55.8,45.4,30.08,WSW,248,11.5,11.5,68,0.00,CLR,,0.00,WeatherDisplay:10.37,2013-01-12 16:52:00,
2013-01-12 10:57:00,55.9,45.5,30.08,SW,225,3.5,3.5,68,0.00,CLR,,0.00,WeatherDisplay:10.37,2013-01-12 16:57:00,
2013-01-12 11:02:00,56.1,45.3,30.07,SSW,202,10.4,10.4,67,0.00,CLR,,0.00,WeatherDisplay:10.37,2013-01-12 17:02:00,
2013-01-12 11:07:00,56.3,45.5,30.08,WSW,248,10.4,10.4,67,0.00,CLR,,0.00,WeatherDisplay:10.37,2013-01-12 17:07:00,
2013-01-12 11:12:00,56.5,44.9,30.08,SW,225,11.5,11.5,65,0.00,CLR,,0.00,WeatherDisplay:10.37,2013-01-12 17:12:00,
2013-01-12 11:17:00,56.8,45.2,30.08,SSW,202,0.0,0.0,65,0.00,CLR,,0.00,WeatherDisplay:10.37,2013-01-12 17:17:00,
2013-01-12 11:22:00,57.9,45.8,30.08,WSW,248,11.2,11.2,64,0.00,CLR,,0.00,WeatherDisplay:10.37,2013-01-12 17:22:00,
2013-01-12 11:27:00,57.9,45.4,30.07,WSW,248,8.1,8.1,63,0.00,CLR,,0.00,WeatherDisplay:10.37,2013-01-12 17:27:00,
2013-01-12 11:32:00,57.6,44.2,30.08,SW,225,13.8,13.8,61,0.00,CLR,,0.00,WeatherDisplay:10.37,2013-01-12 17:32:00,
2013-01-12 11:37:00,57.4,44.0,30.08,WSW,248,8.1,8.1,61,0.00,CLR,,0.00,WeatherDisplay:10.37,2013-01-12 17:37:00,
2013-01-12 11:42:00,57.2,43.9,30.08,WSW,248,10.4,10.4,61,0.00,CLR,,0.00,WeatherDisplay:10.37,2013-01-12 17:42:00,
2013-01-12 11:47:00,57.4,44.0,30.08,SSW,202,6.9,7.4,61,0.00,CLR,,0.00,WeatherDisplay:10.37,2013-01-12 17:47:00,
2013-01-12 11:52:00,57.4,44.5,30.08,SSW,202,0.0,0.0,62,0.00,CLR,,0.00,WeatherDisplay:10.37,2013-01-12 17:52:00,
2013-01-12 11:57:00,57.4,44.0,30.08,West,270,6.9,6.9,61,0.00,CLR,,0.00,WeatherDisplay:10.37,2013-01-12 17:57:00,
2013-01-12 12:02:00,57.0,43.7,30.08,West,270,0.0,0.0,61,0.00,CLR,,0.00,WeatherDisplay:10.37,2013-01-12 18:02:00,
2013-01-12 12:07:00,58.1,43.8,30.09,SW,225,9.2,9.2,59,0.00,CLR,,0.00,WeatherDisplay:10.37,2013-01-12 18:07:00,
2013-01-12 12:12:00,57.7,43.9,30.08,WSW,248,0.0,0.0,60,0.00,CLR,,0.00,WeatherDisplay:10.37,2013-01-12 18:12:00,
2013-01-12 12:17:00,57.4,43.2,30.08,SW,225,6.9,6.9,59,0.00,CLR,,0.00,WeatherDisplay:10.37,2013-01-12 18:17:00,
2013-01-12 12:22:00,56.7,42.9,30.07,WSW,248,2.3,2.3,60,0.00,CLR,,0.00,WeatherDisplay:10.37,2013-01-12 18:22:00,
2013-01-12 12:27:00,56.7,43.4,30.08,SSW,202,8.1,8.1,61,0.00,CLR,,0.00,WeatherDisplay:10.37,2013-01-12 18:27:00,
2013-01-12 12:32:00,56.3,42.1,30.07,SSW,202,6.9,6.9,59,0.00,CLR,,0.00,WeatherDisplay:10.37,2013-01-12 18:32:00,
2013-01-12 12:37:00,55.8,41.6,30.07,SW,225,4.6,4.6,59,0.00,CLR,,0.00,WeatherDisplay:10.37,2013-01-12 18:37:00,
2013-01-12 12:42:00,54.9,40.8,30.07,SW,225,8.1,0.0,59,0.00,CLR,,0.00,WeatherDisplay:10.37,2013-01-12 18:42:00,
2013-01-12 12:47:00,54.5,40.9,30.07,SSW,202,7.8,7.8,60,0.00,CLR,,0.00,WeatherDisplay:10.37,2013-01-12 18:47:00,
2013-01-12 12:52:00,54.5,40.9,30.07,SW,225,7.2,7.2,60,0.00,CLR,,0.00,WeatherDisplay:10.37,2013-01-12 18:52:00,
2013-01-12 12:57:00,55.0,40.5,30.07,SSW,202,3.8,3.8,58,0.00,CLR,,0.00,WeatherDisplay:10.37,2013-01-12 18:57:00,
2013-01-12 13:02:00,54.1,38.3,30.07,WSW,248,2.5,2.5,55,0.00,CLR,,0.00,WeatherDisplay:10.37,2013-01-12 19:02:00,
2013-01-12 13:07:00,53.8,37.5,30.09,WSW,248,0.0,0.0,54,0.00,CLR,,0.00,WeatherDisplay:10.37,2013-01-12 19:07:00,
2013-01-12 13:12:00,53.8,38.0,30.09,SW,225,6.9,6.9,55,0.00,CLR,,0.00,WeatherDisplay:10.37,2013-01-12 19:12:00,
2013-01-12 13:17:00,53.6,37.8,30.08,SW,225,6.9,6.9,55,0.00,CLR,,0.00,WeatherDisplay:10.37,2013-01-12 19:17:00,
2013-01-12 13:22:00,53.2,37.0,30.08,SSW,202,5.8,5.8,54,0.00,CLR,,0.00,WeatherDisplay:10.37,2013-01-12 19:22:00,
2013-01-12 13:27:00,53.2,36.5,30.08,SSW,202,0.0,0.0,53,0.00,CLR,,0.00,WeatherDisplay:10.37,2013-01-12 19:27:00,
2013-01-12 13:32:00,53.1,36.4,30.09,SW,225,6.7,6.7,53,0.00,CLR,,0.00,WeatherDisplay:10.37,2013-01-12 19:32:00,
2013-01-12 13:37:00,52.7,36.5,30.09,SW,225,4.6,4.6,54,0.00,CLR,,0.00,WeatherDisplay:10.37,2013-01-12 19:37:00,
2013-01-12 13:42:00,52.7,36.0,30.09,WSW,248,0.0,0.0,53,0.00,CLR,,0.00,WeatherDisplay:10.37,2013-01-12 19:42:00,
2013-01-12 13:47:00,52.5,36.8,30.09,WSW,248,0.9,0.9,55,0.00,CLR,,0.00,WeatherDisplay:10.37,2013-01-12 19:47:00,
2013-01-12 13:52:00,52.3,36.6,30.10,WSW,248,0.0,0.0,55,0.00,CLR,,0.00,WeatherDisplay:10.37,2013-01-12 19:52:00,
2013-01-12 13:57:00,52.3,36.6,30.10,WSW,248,0.0,0.0,55,0.00,CLR,,0.00,WeatherDisplay:10.37,2013-01-12 19:57:00,
2013-01-12 14:02:00,52.0,36.3,30.10,SW,225,0.0,0.0,55,0.00,CLR,,0.00,WeatherDisplay:10.37,2013-01-12 20:02:00,
2013-01-12 14:07:00,52.0,36.3,30.10,SSW,202,0.0,0.0,55,0.00,CLR,,0.00,WeatherDisplay:10.37,2013-01-12 20:07:00,
2013-01-12 14:12:00,52.0,36.8,30.10,SW,225,0.0,0.0,56,0.00,CLR,,0.00,WeatherDisplay:10.37,2013-01-12 20:12:00,
2013-01-12 14:17:00,51.4,35.8,30.10,SW,225,0.0,0.0,55,0.00,CLR,,0.00,WeatherDisplay:10.37,2013-01-12 20:17:00,
2013-01-12 14:22:00,50.9,34.8,30.10,WSW,248,0.0,0.0,54,0.00,CLR,,0.00,WeatherDisplay:10.37,2013-01-12 20:22:00,
2013-01-12 14:27:00,50.7,34.2,30.09,SSW,202,0.0,0.0,53,0.00,CLR,,0.00,WeatherDisplay:10.37,2013-01-12 20:27:00,
2013-01-12 14:32:00,50.4,34.3,30.10,SSW,202,1.2,1.2,54,0.00,CLR,,0.00,WeatherDisplay:10.37,2013-01-12 20:32:00,
2013-01-12 14:37:00,50.2,34.2,30.10,SW,225,2.3,0.0,54,0.00,CLR,,0.00,WeatherDisplay:10.37,2013-01-12 20:37:00,
2013-01-12 14:42:00,50.2,34.6,30.10,SW,225,0.0,0.0,55,0.00,CLR,,0.00,WeatherDisplay:10.37,2013-01-12 20:42:00,
2013-01-12 14:47:00,50.0,34.9,30.11,South,180,0.0,0.0,56,0.00,CLR,,0.00,WeatherDisplay:10.37,2013-01-12 20:47:00,
2013-01-12 14:52:00,49.6,34.6,30.12,SW,225,0.0,0.0,56,0.00,CLR,,0.00,WeatherDisplay:10.37,2013-01-12 20:52:00,
2013-01-12 14:57:00,49.5,34.4,30.12,South,180,0.0,0.0,56,0.00,CLR,,0.00,WeatherDisplay:10.37,2013-01-12 20:57:00,
2013-01-12 15:02:00,49.1,34.5,30.13,SSW,202,2.3,2.3,57,0.00,CLR,,0.00,WeatherDisplay:10.37,2013-01-12 21:02:00,
2013-01-12 15:07:00,48.9,34.8,30.12,SW,225,0.0,0.0,58,0.00,CLR,,0.00,WeatherDisplay:10.37,2013-01-12 21:07:00,
2013-01-12 15:12:00,48.6,35.3,30.12,WSW,248,0.0,0.0,60,0.00,CLR,,0.00,WeatherDisplay:10.37,2013-01-12 21:12:00,
2013-01-12 15:17:00,48.4,34.7,30.12,WSW,248,0.0,0.0,59,0.00,CLR,,0.00,WeatherDisplay:10.37,2013-01-12 21:17:00,
2013-01-12 15:22:00,47.8,34.2,30.12,SW,225,0.0,0.0,59,0.00,CLR,,0.00,WeatherDisplay:10.37,2013-01-12 21:22:00,
2013-01-12 15:27:00,47.5,34.3,30.12,WSW,248,0.0,0.0,60,0.00,CLR,,0.00,WeatherDisplay:10.37,2013-01-12 21:27:00,
2013-01-12 15:32:00,47.3,34.5,30.12,WSW,248,0.0,0.0,61,0.00,CLR,,0.00,WeatherDisplay:10.37,2013-01-12 21:32:00,
2013-01-12 15:37:00,46.9,34.6,30.12,WNW,292,0.0,0.0,62,0.00,CLR,,0.00,WeatherDisplay:10.37,2013-01-12 21:37:00,
2013-01-12 15:42:00,46.6,34.2,30.11,WSW,248,0.0,0.0,62,0.00,CLR,,0.00,WeatherDisplay:10.37,2013-01-12 21:42:00,
2013-01-12 15:47:00,46.0,33.7,30.11,West,270,0.0,0.0,62,0.00,CLR,,0.00,WeatherDisplay:10.37,2013-01-12 21:47:00,
2013-01-12 15:52:00,46.0,33.7,30.11,WNW,292,1.2,1.2,62,0.00,CLR,,0.00,WeatherDisplay:10.37,2013-01-12 21:52:00,
2013-01-12 15:57:00,45.5,33.2,30.11,NW,315,0.0,0.0,62,0.00,CLR,,0.00,WeatherDisplay:10.37,2013-01-12 21:57:00,
2013-01-12 16:02:00,45.3,33.1,30.10,West,270,2.3,2.3,62,0.00,CLR,,0.00,WeatherDisplay:10.37,2013-01-12 22:02:00,
2013-01-12 16:07:00,45.0,32.7,30.10,West,270,0.0,0.0,62,0.00,CLR,,0.00,WeatherDisplay:10.37,2013-01-12 22:07:00,
2013-01-12 16:12:00,44.8,32.9,30.09,NW,315,0.9,0.9,63,0.00,CLR,,0.00,WeatherDisplay:10.37,2013-01-12 22:12:00,
2013-01-12 16:17:00,44.4,32.2,30.09,NW,315,2.5,2.5,62,0.00,CLR,,0.00,WeatherDisplay:10.37,2013-01-12 22:17:00,
2013-01-12 16:22:00,44.2,32.0,30.09,West,270,0.0,0.0,62,0.00,CLR,,0.00,WeatherDisplay:10.37,2013-01-12 22:22:00,
2013-01-12 16:27:00,43.9,31.7,30.09,NW,315,0.0,0.0,62,0.00,CLR,,0.00,WeatherDisplay:10.37,2013-01-12 22:27:00,
2013-01-12 16:32:00,43.7,31.5,30.10,NW,315,0.0,0.0,62,0.00,CLR,,0.00,WeatherDisplay:10.37,2013-01-12 22:32:00,
2013-01-12 16:37:00,43.5,31.8,30.10,WNW,292,0.0,0.0,63,0.00,CLR,,0.00,WeatherDisplay:10.37,2013-01-12 22:37:00,
2013-01-12 16:42:00,43.3,32.4,30.11,NW,315,0.0,0.0,65,0.00,CLR,,0.00,WeatherDisplay:10.37,2013-01-12 22:42:00,
2013-01-12 16:47:00,43.3,32.4,30.11,West,270,0.0,0.0,65,0.00,CLR,,0.00,WeatherDisplay:10.37,2013-01-12 22:47:00,
2013-01-12 16:52:00,43.2,32.6,30.11,WSW,248,0.0,0.0,66,0.00,CLR,,0.00,WeatherDisplay:10.37,2013-01-12 22:52:00,
2013-01-12 16:57:00,43.2,33.3,30.11,WNW,292,0.0,0.0,68,0.00,CLR,,0.00,WeatherDisplay:10.37,2013-01-12 22:57:00,
2013-01-12 17:02:00,43.2,33.7,30.11,WNW,292,3.5,0.0,69,0.00,CLR,,0.00,WeatherDisplay:10.37,2013-01-12 23:02:00,
2013-01-12 17:07:00,43.2,33.7,30.12,WNW,292,0.0,0.0,69,0.00,CLR,,0.00,WeatherDisplay:10.37,2013-01-12 23:07:00,
2013-01-12 17:12:00,43.2,33.7,30.11,NNW,338,2.3,2.3,69,0.00,CLR,,0.00,WeatherDisplay:10.37,2013-01-12 23:12:00,
2013-01-12 17:17:00,43.0,33.5,30.12,WNW,292,0.0,0.0,69,0.00,CLR,,0.00,WeatherDisplay:10.37,2013-01-12 23:17:00,
2013-01-12 17:22:00,43.0,33.5,30.12,NW,315,0.0,0.0,69,0.00,CLR,,0.00,WeatherDisplay:10.37,2013-01-12 23:22:00,
2013-01-12 17:27:00,42.8,33.0,30.11,WNW,292,0.0,0.0,68,0.00,CLR,,0.00,WeatherDisplay:10.37,2013-01-12 23:27:00,
2013-01-12 17:32:00,42.6,32.4,30.11,NW,315,0.0,0.0,67,0.00,CLR,,0.00,WeatherDisplay:10.37,2013-01-12 23:32:00,
2013-01-12 17:37:00,42.4,31.5,30.10,WNW,292,5.8,5.8,65,0.00,CLR,,0.00,WeatherDisplay:10.37,2013-01-12 23:37:00,
2013-01-12 17:42:00,42.3,31.3,30.10,NW,315,5.1,5.1,65,0.00,CLR,,0.00,WeatherDisplay:10.37,2013-01-12 23:42:00,
2013-01-12 17:47:00,42.1,31.2,30.10,NW,315,4.6,0.0,65,0.00,CLR,,0.00,WeatherDisplay:10.37,2013-01-12 23:47:00,
2013-01-12 17:52:00,41.9,31.4,30.10,WNW,292,3.5,3.5,66,0.00,CLR,,0.00,WeatherDisplay:10.37,2013-01-12 23:52:00,
2013-01-12 17:57:00,41.9,31.4,30.10,NNW,338,0.0,0.0,66,0.00,CLR,,0.00,WeatherDisplay:10.37,2013-01-12 23:57:00,
2013-01-12 18:02:00,41.7,31.6,30.09,North,0,0.0,0.0,67,0.00,CLR,,0.00,WeatherDisplay:10.37,2013-01-13 00:02:00,
2013-01-12 18:07:00,41.7,31.9,30.08,WNW,292,0.0,0.0,68,0.00,CLR,,0.00,WeatherDisplay:10.37,2013-01-13 00:07:00,
2013-01-12 18:12:00,41.7,32.3,30.07,NNW,338,2.3,2.3,69,0.00,CLR,,0.00,WeatherDisplay:10.37,2013-01-13 00:12:00,
2013-01-12 18:17:00,41.7,32.3,30.07,NNW,338,0.0,0.0,69,0.00,CLR,,0.00,WeatherDisplay:10.37,2013-01-13 00:17:00,
2013-01-12 18:22:00,41.7,32.3,30.07,North,0,4.5,0.0,69,0.00,CLR,,0.00,WeatherDisplay:10.37,2013-01-13 00:22:00,
2013-01-12 18:27:00,41.7,32.3,30.06,NW,315,8.1,8.1,69,0.00,CLR,,0.00,WeatherDisplay:10.37,2013-01-13 00:27:00,
2013-01-12 18:32:00,41.7,31.9,30.08,WNW,292,4.0,4.0,68,0.00,CLR,,0.00,WeatherDisplay:10.37,2013-01-13 00:32:00,
2013-01-12 18:37:00,41.7,31.6,30.08,NW,315,6.3,6.3,67,0.00,CLR,,0.00,WeatherDisplay:10.37,2013-01-13 00:37:00,
2013-01-12 18:42:00,41.5,31.0,30.09,North,0,8.1,0.0,66,0.00,CLR,,0.00,WeatherDisplay:10.37,2013-01-13 00:42:00,
2013-01-12 18:47:00,41.4,30.5,30.09,WNW,292,0.4,0.4,65,0.00,CLR,,0.00,WeatherDisplay:10.37,2013-01-13 00:47:00,
2013-01-12 18:52:00,41.2,29.9,30.09,North,0,1.2,1.2,64,0.00,CLR,,0.00,WeatherDisplay:10.37,2013-01-13 00:52:00,
2013-01-12 18:57:00,41.0,29.7,30.09,NNW,338,1.3,1.6,64,0.00,CLR,,0.00,WeatherDisplay:10.37,2013-01-13 00:57:00,
2013-01-12 19:02:00,40.5,29.2,30.08,NW,315,0.0,0.0,64,0.00,CLR,,0.00,WeatherDisplay:10.37,2013-01-13 01:02:00,
2013-01-12 19:07:00,39.7,28.9,30.07,NNW,338,3.5,3.5,65,0.00,CLR,,0.00,WeatherDisplay:10.37,2013-01-13 01:07:00,
2013-01-12 19:12:00,39.4,29.0,30.07,NNW,338,0.0,0.0,66,0.00,CLR,,0.00,WeatherDisplay:10.37,2013-01-13 01:12:00,
2013-01-12 19:17:00,39.0,29.0,30.07,NNW,338,0.0,0.0,67,0.00,CLR,,0.00,WeatherDisplay:10.37,2013-01-13 01:17:00,
2013-01-12 19:22:00,38.7,29.4,30.07,North,0,0.0,0.0,69,0.00,CLR,,0.00,WeatherDisplay:10.37,2013-01-13 01:22:00,
2013-01-12 19:27:00,38.5,29.5,30.06,North,0,2.5,2.5,70,0.00,CLR,,0.00,WeatherDisplay:10.37,2013-01-13 01:27:00,
2013-01-12 19:32:00,38.3,29.4,30.06,NNW,338,0.0,0.0,70,0.00,CLR,,0.00,WeatherDisplay:10.37,2013-01-13 01:32:00,
2013-01-12 19:37:00,38.3,29.7,30.06,NNE,22,0.0,0.0,71,0.00,CLR,,0.00,WeatherDisplay:10.37,2013-01-13 01:37:00,
2013-01-12 19:42:00,38.1,29.5,30.05,NW,315,0.0,0.0,71,0.00,CLR,,0.00,WeatherDisplay:10.37,2013-01-13 01:42:00,
2013-01-12 19:47:00,37.6,29.4,30.06,North,0,0.0,0.0,72,0.00,CLR,,0.00,WeatherDisplay:10.37,2013-01-13 01:47:00,
2013-01-12 19:52:00,37.2,29.0,30.06,WNW,292,2.3,2.3,72,0.00,CLR,,0.00,WeatherDisplay:10.37,2013-01-13 01:52:00,
2013-01-12 19:57:00,37.0,29.2,30.06,NNW,338,0.0,0.0,73,0.00,CLR,,0.00,WeatherDisplay:10.37,2013-01-13 01:57:00,
2013-01-12 20:02:00,36.3,28.5,30.06,North,0,0.0,0.0,73,0.00,CLR,,0.00,WeatherDisplay:10.37,2013-01-13 02:02:00,
2013-01-12 20:07:00,36.1,28.6,30.05,NNW,338,0.0,0.0,74,0.02,RA,,0.02,WeatherDisplay:10.37,2013-01-13 02:07:00,
2013-01-12 20:12:00,36.0,28.5,30.04,North,0,0.0,0.0,74,0.02,RA,,0.02,WeatherDisplay:10.37,2013-01-13 02:12:00,
2013-01-12 20:17:00,35.8,28.6,30.03,NNW,338,3.5,3.6,75,0.02,CLR,,0.02,WeatherDisplay:10.37,2013-01-13 02:17:00,
2013-01-12 20:22:00,35.2,28.4,30.03,NNW,338,0.0,0.2,76,0.04,RA,,0.04,WeatherDisplay:10.37,2013-01-13 02:22:00,
2013-01-12 20:28:00,35.2,28.4,30.03,WNW,292,3.5,3.5,76,0.04,RA,,0.04,WeatherDisplay:10.37,2013-01-13 02:28:00,
2013-01-12 20:33:00,35.2,28.8,30.03,North,0,6.3,6.3,77,0.04,,,0.04,WeatherDisplay:10.37,2013-01-13 02:33:00,
2013-01-12 20:38:00,34.9,28.4,30.03,North,0,1.2,1.3,77,0.04,CLR,,0.04,WeatherDisplay:10.37,2013-01-13 02:38:00,
2013-01-12 20:43:00,34.9,28.7,30.03,NW,315,4.9,4.9,78,0.04,CLR,,0.04,WeatherDisplay:10.37,2013-01-13 02:43:00,
2013-01-12 20:48:00,34.9,28.7,30.02,North,0,3.5,3.5,78,0.04,CLR,,0.04,WeatherDisplay:10.37,2013-01-13 02:48:00,
2013-01-12 20:53:00,34.9,29.0,30.02,NNE,22,0.0,0.0,79,0.04,CLR,,0.04,WeatherDisplay:10.37,2013-01-13 02:53:00,
2013-01-12 20:58:00,34.9,29.0,30.02,NW,315,4.7,4.7,79,0.04,CLR,,0.04,WeatherDisplay:10.37,2013-01-13 02:58:00,
2013-01-12 21:03:00,34.9,29.3,30.03,NNW,338,0.0,0.0,80,0.04,CLR,,0.04,WeatherDisplay:10.37,2013-01-13 03:03:00,
2013-01-12 21:08:00,34.9,29.3,30.04,North,0,0.0,0.0,80,0.02,CLR,,0.04,WeatherDisplay:10.37,2013-01-13 03:08:00,
2013-01-12 21:13:00,34.9,29.6,30.04,NW,315,8.1,8.1,81,0.04,RA,,0.06,WeatherDisplay:10.37,2013-01-13 03:13:00,
2013-01-12 21:18:00,34.9,29.6,30.04,NNW,338,0.0,0.0,81,0.04,RA,,0.06,WeatherDisplay:10.37,2013-01-13 03:18:00,
2013-01-12 21:23:00,34.9,29.6,30.05,NNW,338,4.6,4.6,81,0.02,RA,,0.06,WeatherDisplay:10.37,2013-01-13 03:23:00,
2013-01-12 21:28:00,34.9,29.9,30.04,NW,315,0.0,0.0,82,0.02,CLR,,0.06,WeatherDisplay:10.37,2013-01-13 03:28:00,
2013-01-12 21:33:00,34.7,29.8,30.04,WNW,292,16.3,16.3,82,0.02,CLR,,0.06,WeatherDisplay:10.37,2013-01-13 03:33:00,
2013-01-12 21:38:00,34.7,29.8,30.04,NW,315,8.1,8.1,82,0.02,CLR,,0.06,WeatherDisplay:10.37,2013-01-13 03:38:00,
2013-01-12 21:43:00,34.5,29.9,30.04,WNW,292,8.1,8.1,83,0.02,CLR,,0.06,WeatherDisplay:10.37,2013-01-13 03:43:00,
2013-01-12 21:48:00,34.5,29.9,30.04,NNW,338,2.3,0.0,83,0.02,CLR,,0.06,WeatherDisplay:10.37,2013-01-13 03:48:00,
2013-01-12 21:53:00,34.5,29.9,30.04,WNW,292,10.4,10.4,83,0.02,CLR,,0.06,WeatherDisplay:10.37,2013-01-13 03:53:00,
2013-01-12 21:58:00,34.5,29.9,30.04,NW,315,2.3,2.3,83,0.04,RA,,0.08,WeatherDisplay:10.37,2013-01-13 03:58:00,
2013-01-12 22:03:00,34.5,29.9,30.04,NW,315,0.0,1.8,83,0.04,RA,,0.08,WeatherDisplay:10.37,2013-01-13 04:03:00,
2013-01-12 22:08:00,33.8,29.2,30.04,SSW,202,3.5,3.5,83,0.04,CLR,,0.08,WeatherDisplay:10.37,2013-01-13 04:08:00,
2013-01-12 22:13:00,33.8,29.2,30.04,NNW,338,0.0,0.0,83,0.04,CLR,,0.08,WeatherDisplay:10.37,2013-01-13 04:13:00,
2013-01-12 22:18:00,33.8,28.9,30.04,North,0,0.0,0.0,82,0.02,CLR,,0.08,WeatherDisplay:10.37,2013-01-13 04:18:00,
2013-01-12 22:23:00,33.3,28.4,30.04,NNW,338,6.9,6.9,82,0.02,CLR,,0.08,WeatherDisplay:10.37,2013-01-13 04:23:00,
2013-01-12 22:28:00,33.3,28.4,30.04,NNW,338,6.9,6.9,82,0.02,CLR,,0.08,WeatherDisplay:10.37,2013-01-13 04:28:00,
2013-01-12 22:33:00,32.9,28.3,30.04,North,0,5.8,6.8,83,0.02,CLR,,0.08,WeatherDisplay:10.37,2013-01-13 04:33:00,
2013-01-12 22:38:00,32.7,28.1,30.00,NNW,338,0.0,2.3,83,0.02,CLR,,0.08,WeatherDisplay:10.37,2013-01-13 04:38:00,
2013-01-12 22:43:00,32.7,28.1,30.00,WNW,292,0.0,0.0,83,0.02,CLR,,0.08,WeatherDisplay:10.37,2013-01-13 04:43:00,
2013-01-12 22:49:00,32.7,28.1,30.01,WNW,292,0.0,0.0,83,0.02,CLR,,0.08,WeatherDisplay:10.37,2013-01-13 04:49:00,
2013-01-12 22:54:00,32.7,28.1,30.01,NNW,338,4.6,4.6,83,0.02,CLR,,0.08,WeatherDisplay:10.37,2013-01-13 04:54:00,
2013-01-12 22:59:00,32.7,28.4,30.01,NNW,338,1.6,2.7,84,0.00,CLR,,0.08,WeatherDisplay:10.37,2013-01-13 04:59:00,
2013-01-12 23:00:00,32.7,28.4,30.00,NNE,22,1.2,1.6,84,0.00,CLR,,0.08,WeatherDisplay:10.37,2013-01-13 05:00:00,
2013-01-12 23:01:00,32.7,28.4,30.00,NNE,22,1.2,1.6,84,0.00,CLR,,0.08,WeatherDisplay:10.37,2013-01-13 05:01:00,
2013-01-12 23:03:00,32.7,28.4,30.00,NNE,22,1.2,1.3,84,0.00,CLR,,0.08,WeatherDisplay:10.37,2013-01-13 05:03:00,
2013-01-12 23:08:00,32.9,28.6,30.00,NE,45,2.3,2.3,84,0.00,CLR,,0.08,WeatherDisplay:10.37,2013-01-13 05:08:00,
2013-01-12 23:13:00,32.9,28.6,30.00,NNW,338,3.5,3.6,84,0.00,CLR,,0.08,WeatherDisplay:10.37,2013-01-13 05:13:00,
2013-01-12 23:18:00,33.1,29.1,30.00,NNW,338,3.5,3.5,85,0.00,CLR,,0.08,WeatherDisplay:10.37,2013-01-13 05:18:00,
2013-01-12 23:23:00,33.3,29.2,30.00,NNW,338,0.0,0.0,85,0.00,CLR,,0.08,WeatherDisplay:10.37,2013-01-13 05:23:00,
2013-01-12 23:28:00,33.4,29.4,30.01,WNW,292,6.9,7.1,85,0.00,CLR,,0.08,WeatherDisplay:10.37,2013-01-13 05:28:00,
2013-01-12 23:33:00,33.4,29.4,30.01,NW,315,3.5,3.5,85,0.00,CLR,,0.08,WeatherDisplay:10.37,2013-01-13 05:33:00,
2013-01-12 23:38:00,33.4,29.4,30.02,WNW,292,5.8,5.8,85,0.00,CLR,,0.08,WeatherDisplay:10.37,2013-01-13 05:38:00,
2013-01-12 23:43:00,33.4,29.4,30.03,NNW,338,3.5,3.5,85,0.00,CLR,,0.08,WeatherDisplay:10.37,2013-01-13 05:43:00,
2013-01-12 23:48:00,33.4,29.4,30.03,NW,315,0.0,1.9,85,0.00,CLR,,0.08,WeatherDisplay:10.37,2013-01-13 05:48:00,
2013-01-12 23:53:00,33.4,29.4,30.03,NW,315,0.0,1.9,85,0.00,CLR,,0.08,WeatherDisplay:10.37,2013-01-13 05:53:00,
2013-01-12 23:58:00,33.4,29.4,30.03,ENE,68,0.0,0.0,85,0.00,CLR,,0.08,WeatherDisplay:10.37,2013-01-13 05:58:00,